createdAt,value
2019-03-22T00:02:14.417Z,24.47
2019-03-22T00:04:42.805Z,22.93
2019-03-22T00:07:11.237Z,23.77
2019-03-22T00:09:39.542Z,23.27
2019-03-22T00:12:07.857Z,27.07
2019-03-22T00:14:37.154Z,23.07
2019-03-22T00:17:05.692Z,26.83
2019-03-22T00:19:33.924Z,25.33
2019-03-22T00:22:02.412Z,23.17
2019-03-22T00:24:30.748Z,26.27
2019-03-22T00:26:59.086Z,24.33
2019-03-22T00:29:27.576Z,25.13
2019-03-22T00:31:55.981Z,28.40
2019-03-22T00:34:25.335Z,24.13
2019-03-22T00:36:53.648Z,20.27
2019-03-22T00:39:21.862Z,25.10
2019-03-22T00:41:50.213Z,22.93
2019-03-22T00:44:18.569Z,21.97
2019-03-22T00:46:47.061Z,27.00
2019-03-22T00:49:15.313Z,22.03
2019-03-22T00:51:43.512Z,22.03
2019-03-22T00:54:11.885Z,26.00
2019-03-22T00:56:40.252Z,22.13
2019-03-22T00:59:08.554Z,27.30
2019-03-22T01:01:36.906Z,28.87
2019-03-22T01:04:05.364Z,21.23
2019-03-22T01:06:33.767Z,30.03
2019-03-22T01:09:02.163Z,21.63
2019-03-22T01:11:32.144Z,23.30
2019-03-22T01:14:00.440Z,27.33
2019-03-22T01:16:28.646Z,24.57
2019-03-22T01:18:57.001Z,21.10
2019-03-22T01:21:26.250Z,29.67
2019-03-22T01:23:54.521Z,22.53
2019-03-22T01:26:22.838Z,27.73
2019-03-22T01:28:51.230Z,24.57
2019-03-22T01:31:19.504Z,29.53
2019-03-22T01:33:47.846Z,29.47
2019-03-22T01:36:16.160Z,23.90
2019-03-22T01:38:44.482Z,28.90
2019-03-22T01:41:12.791Z,21.93
2019-03-22T01:43:41.135Z,23.23
2019-03-22T01:46:09.504Z,27.77
2019-03-22T01:48:37.791Z,24.30
2019-03-22T01:51:06.153Z,26.53
2019-03-22T01:53:34.611Z,25.70
2019-03-22T01:56:02.833Z,23.53
2019-03-22T01:58:31.224Z,26.43
2019-03-22T02:00:59.469Z,27.80
2019-03-22T02:03:27.717Z,28.60
2019-03-22T02:05:55.932Z,27.30
2019-03-22T02:08:25.326Z,26.47
2019-03-22T02:10:53.904Z,25.13
2019-03-22T02:13:22.260Z,22.73
2019-03-22T02:15:50.541Z,25.10
2019-03-22T02:18:18.920Z,21.97
2019-03-22T02:20:47.320Z,31.80
2019-03-22T02:23:15.672Z,26.13
2019-03-22T02:25:44.350Z,31.27
2019-03-22T02:28:12.760Z,24.13
2019-03-22T02:30:41.005Z,24.63
2019-03-22T02:33:09.395Z,25.30
2019-03-22T02:35:39.033Z,23.20
2019-03-22T02:38:07.254Z,27.03
2019-03-22T02:40:35.575Z,27.40
2019-03-22T02:43:03.996Z,24.43
2019-03-22T02:45:32.224Z,24.90
2019-03-22T02:48:00.645Z,29.70
2019-03-22T02:50:28.949Z,23.47
2019-03-22T02:52:57.284Z,27.70
2019-03-22T02:55:25.638Z,25.80
2019-03-22T02:57:53.977Z,25.23
2019-03-22T03:00:22.189Z,25.60
2019-03-22T03:02:50.672Z,26.37
2019-03-22T03:05:18.952Z,24.60
2019-03-22T03:07:47.258Z,24.87
2019-03-22T03:10:16.213Z,23.77
2019-03-22T03:12:44.972Z,27.70
2019-03-22T03:15:15.033Z,25.37
2019-03-22T03:17:43.575Z,21.83
2019-03-22T03:20:13.649Z,24.90
2019-03-22T03:22:42.133Z,25.67
2019-03-22T03:25:10.601Z,25.43
2019-03-22T03:27:38.893Z,25.43
2019-03-22T03:30:08.680Z,28.10
2019-03-22T03:32:37.009Z,23.13
2019-03-22T03:35:05.534Z,22.03
2019-03-22T03:37:33.883Z,18.97
2019-03-22T03:40:02.974Z,22.57
2019-03-22T03:42:31.355Z,24.13
2019-03-22T03:44:59.812Z,24.50
2019-03-22T03:47:28.205Z,25.03
2019-03-22T03:49:56.593Z,22.57
2019-03-22T03:52:25.006Z,29.00
2019-03-22T03:54:53.248Z,30.40
2019-03-22T03:57:22.681Z,24.90
2019-03-22T03:59:51.601Z,29.53
2019-03-22T04:02:19.873Z,28.93
2019-03-22T04:04:48.114Z,25.00
2019-03-22T04:07:16.474Z,24.63
2019-03-22T04:09:44.714Z,22.40
2019-03-22T04:12:13.112Z,24.13
2019-03-22T04:14:41.426Z,26.63
2019-03-22T04:17:09.880Z,25.13
2019-03-22T04:19:39.148Z,26.90
2019-03-22T04:22:07.525Z,27.03
2019-03-22T04:24:35.805Z,27.07
2019-03-22T04:27:04.105Z,24.13
2019-03-22T04:29:32.496Z,25.37
2019-03-22T04:32:00.855Z,23.23
2019-03-22T04:34:29.154Z,26.13
2019-03-22T04:36:57.471Z,26.90
2019-03-22T04:39:25.870Z,26.17
2019-03-22T04:41:54.153Z,25.43
2019-03-22T04:44:22.427Z,29.47
2019-03-22T04:46:50.704Z,26.80
2019-03-22T04:49:20.645Z,25.40
2019-03-22T04:51:49.432Z,26.03
2019-03-22T04:54:19.012Z,29.80
2019-03-22T04:56:49.467Z,30.33
2019-03-22T04:59:19.415Z,28.63
2019-03-22T05:01:49.511Z,26.33
2019-03-22T05:04:20.133Z,22.40
2019-03-22T05:06:49.704Z,33.50
2019-03-22T05:09:18.274Z,25.77
2019-03-22T05:11:47.457Z,25.53
2019-03-22T05:14:17.254Z,27.63
2019-03-22T05:16:46.919Z,27.27
2019-03-22T05:19:16.695Z,28.27
2019-03-22T05:21:45.146Z,27.10
2019-03-22T05:24:14.549Z,24.13
2019-03-22T05:26:43.322Z,27.57
2019-03-22T05:29:11.802Z,27.00
2019-03-22T05:31:41.677Z,26.27
2019-03-22T05:34:09.980Z,23.33
2019-03-22T05:36:38.367Z,24.23
2019-03-22T05:39:07.824Z,28.83
2019-03-22T05:41:36.101Z,24.63
2019-03-22T05:44:04.332Z,26.80
2019-03-22T05:46:32.702Z,23.93
2019-03-22T05:49:00.835Z,23.40
2019-03-22T05:51:29.262Z,28.90
2019-03-22T05:53:57.592Z,26.50
2019-03-22T05:56:25.967Z,30.97
2019-03-22T05:58:54.184Z,26.27
2019-03-22T06:01:22.504Z,26.17
2019-03-22T06:03:50.821Z,26.43
2019-03-22T06:06:22.376Z,25.93
2019-03-22T06:08:50.712Z,25.00
2019-03-22T06:14:46.424Z,26.23
2019-03-22T06:17:14.675Z,23.47
2019-03-22T06:19:42.970Z,26.17
2019-03-22T06:25:27.373Z,29.30
2019-03-22T06:27:56.713Z,26.90
2019-03-22T06:33:29.772Z,29.80
2019-03-22T06:39:14.552Z,27.47
2019-03-22T06:41:43.122Z,27.13
2019-03-22T06:44:11.489Z,29.03
2019-03-22T06:46:39.902Z,24.23
2019-03-22T06:49:08.265Z,24.07
2019-03-22T06:51:36.780Z,25.87
2019-03-22T06:54:05.076Z,26.90
2019-03-22T06:59:49.571Z,31.03
2019-03-22T07:02:17.890Z,28.83
2019-03-22T07:04:46.158Z,22.03
2019-03-22T07:10:30.231Z,31.87
2019-03-22T07:16:14.884Z,25.70
2019-03-22T07:18:43.263Z,27.23
2019-03-22T07:21:11.465Z,23.17
2019-03-22T07:23:48.879Z,24.27
2019-03-22T07:26:17.255Z,28.00
2019-03-22T07:28:45.570Z,25.73
2019-03-22T07:34:29.916Z,24.47
2019-03-22T07:40:14.273Z,25.37
2019-03-22T07:45:58.755Z,22.53
2019-03-22T07:51:46.365Z,24.83
2019-03-22T07:57:32.837Z,24.10
2019-03-22T08:00:01.140Z,28.00
2019-03-22T08:02:29.480Z,24.30
2019-03-22T08:08:15.209Z,21.27
2019-03-22T08:10:43.512Z,24.07
2019-03-22T08:13:11.871Z,22.00
2019-03-22T08:15:41.632Z,24.80
2019-03-22T08:18:10.133Z,22.80
2019-03-22T08:23:53.529Z,25.13
2019-03-22T08:26:21.980Z,19.90
2019-03-22T08:28:50.372Z,21.67
2019-03-22T08:31:19.714Z,20.10
2019-03-22T08:37:03.554Z,18.73
2019-03-22T08:42:48.671Z,22.27
2019-03-22T08:48:34.704Z,19.97
2019-03-22T08:51:03.046Z,19.17
2019-03-22T08:56:36.251Z,13.57
2019-03-22T08:59:05.011Z,15.47
2019-03-22T09:04:48.980Z,16.07
2019-03-22T09:10:33.110Z,12.10
2019-03-22T09:16:16.716Z,10.97
2019-03-22T09:22:01.276Z,13.63
2019-03-22T09:24:39.133Z,11.97
2019-03-22T09:30:15.710Z,14.07
2019-03-22T09:32:43.944Z,14.07
2019-03-22T09:35:12.515Z,11.37
2019-03-22T09:40:56.202Z,9.47
2019-03-22T09:46:41.438Z,8.77
2019-03-22T09:49:09.818Z,8.33
2019-03-22T09:54:53.206Z,9.67
2019-03-22T10:00:41.465Z,7.23
2019-03-22T10:03:09.865Z,7.03
2019-03-22T10:08:46.238Z,8.20
2019-03-22T10:11:16.076Z,10.73
2019-03-22T10:17:01.257Z,7.57
2019-03-22T10:19:29.671Z,7.63
2019-03-22T10:21:58.021Z,7.23
2019-03-22T10:24:26.309Z,6.37
2019-03-22T10:30:11.677Z,6.93
2019-03-22T10:35:55.867Z,5.20
2019-03-22T10:41:39.873Z,3.30
2019-03-22T10:47:24.211Z,3.22
2019-03-22T10:53:09.132Z,3.65
2019-03-22T10:55:37.529Z,3.52
2019-03-22T10:58:19.778Z,4.12
2019-03-22T11:03:51.450Z,3.10
2019-03-22T11:06:26.133Z,3.75
2019-03-22T11:08:49.963Z,4.00
2019-03-22T11:11:18.300Z,3.67
2019-03-22T11:13:46.545Z,3.58
2019-03-22T11:19:30.477Z,4.50
2019-03-22T11:21:58.832Z,3.80
2019-03-22T11:24:27.360Z,3.90
2019-03-22T11:26:55.747Z,4.35
2019-03-22T11:29:24.206Z,4.00
2019-03-22T11:31:52.567Z,3.40
2019-03-22T11:34:20.908Z,4.00
2019-03-22T11:36:49.325Z,4.17
2019-03-22T11:39:17.740Z,4.00
2019-03-22T11:41:46.220Z,4.53
2019-03-22T11:44:15.578Z,4.80
2019-03-22T11:46:45.164Z,4.28
2019-03-22T11:52:30.063Z,3.57
2019-03-22T11:54:58.437Z,2.03
2019-03-22T11:57:26.733Z,2.85
2019-03-22T11:59:55.145Z,2.43
2019-03-22T12:05:40.568Z,2.30
2019-03-22T12:11:26.485Z,3.20
2019-03-22T12:17:10.797Z,4.20
2019-03-22T12:19:39.083Z,3.30
2019-03-22T12:22:07.395Z,2.30
2019-03-22T12:27:36.262Z,2.43
2019-03-22T12:29:58.512Z,1.80
2019-03-22T12:35:31.165Z,3.50
2019-03-22T12:41:15.282Z,3.93
2019-03-22T12:46:59.262Z,3.98
2019-03-22T12:52:43.993Z,3.35
2019-03-22T12:58:16.547Z,3.58
2019-03-22T13:00:44.971Z,2.80
2019-03-22T13:03:13.255Z,3.30
2019-03-22T13:05:41.434Z,3.40
2019-03-22T13:08:09.856Z,3.10
2019-03-22T13:10:38.158Z,3.08
2019-03-22T13:13:06.373Z,2.67
2019-03-22T13:15:34.754Z,3.45
2019-03-22T13:18:03.042Z,3.77
2019-03-22T13:23:59.626Z,2.77
2019-03-22T13:29:45.254Z,3.00
2019-03-22T13:35:31.323Z,2.75
2019-03-22T13:37:59.793Z,3.30
2019-03-22T13:40:28.172Z,3.50
2019-03-22T13:42:56.457Z,2.90
2019-03-22T13:48:41.188Z,2.33
2019-03-22T13:54:24.691Z,3.00
2019-03-22T14:00:21.144Z,2.13
2019-03-22T14:06:05.260Z,2.83
2019-03-22T14:11:49.736Z,3.67
2019-03-22T14:17:33.354Z,2.72
2019-03-22T14:20:10.878Z,2.83
2019-03-22T14:22:31.726Z,2.80
2019-03-22T14:25:01.332Z,2.80
2019-03-22T14:27:29.722Z,2.47
2019-03-22T14:29:58.017Z,1.77
2019-03-22T14:35:42.781Z,2.27
2019-03-22T14:41:15.295Z,2.83
2019-03-22T14:47:00.427Z,2.05
2019-03-22T14:52:45.167Z,2.58
2019-03-22T14:55:16.250Z,2.65
2019-03-22T14:58:05.209Z,2.90
2019-03-22T15:00:37.504Z,3.12
2019-03-22T15:06:22.261Z,2.50
2019-03-22T15:12:06.769Z,2.73
2019-03-22T15:14:36.779Z,2.40
2019-03-22T15:17:06.777Z,2.10
2019-03-22T15:22:51.925Z,2.43
2019-03-22T15:28:38.824Z,2.00
2019-03-22T15:31:08.647Z,2.47
2019-03-22T15:36:54.693Z,1.87
2019-03-22T15:42:39.528Z,2.60
2019-03-22T15:48:23.359Z,2.40
2019-03-22T15:50:51.793Z,2.67
2019-03-22T15:53:20.365Z,2.80
2019-03-22T15:55:48.628Z,2.00
2019-03-22T15:58:16.887Z,2.20
2019-03-22T16:00:46.239Z,2.00
2019-03-22T16:06:30.934Z,2.80
2019-03-22T16:12:14.917Z,2.60
2019-03-22T16:18:11.013Z,1.67
2019-03-22T16:20:39.241Z,3.00
2019-03-22T16:26:23.566Z,2.13
2019-03-22T16:32:07.576Z,2.87
2019-03-22T16:37:52.228Z,3.57
2019-03-22T16:40:24.384Z,4.20
2019-03-22T16:42:50.549Z,4.37
2019-03-22T16:48:35.077Z,2.30
2019-03-22T16:51:05.945Z,3.33
2019-03-22T16:53:34.326Z,3.47
2019-03-22T16:56:02.780Z,2.93
2019-03-22T17:02:00.292Z,5.00
2019-03-22T17:07:45.812Z,13.37
2019-03-22T17:13:29.957Z,4.33
2019-03-22T17:15:58.237Z,4.83
2019-03-22T17:18:26.564Z,6.47
2019-03-22T17:20:54.886Z,7.00
2019-03-22T17:26:40.266Z,6.73
2019-03-22T17:29:08.549Z,4.00
2019-03-22T17:34:41.514Z,4.23
2019-03-22T17:37:09.990Z,5.27
2019-03-22T17:39:38.328Z,3.20
2019-03-22T17:45:13.361Z,4.93
2019-03-22T17:50:57.457Z,5.00
2019-03-22T17:53:25.784Z,5.70
2019-03-22T17:55:54.500Z,6.73
2019-03-22T17:58:23.402Z,6.93
2019-03-22T18:00:53.900Z,7.40
2019-03-22T18:03:21.890Z,6.30
2019-03-22T18:05:50.767Z,10.43
2019-03-22T18:08:19.599Z,9.33
2019-03-22T18:10:47.984Z,10.43
2019-03-22T18:13:17.435Z,8.70
2019-03-22T18:15:54.685Z,7.50
2019-03-22T18:18:23.497Z,8.67
2019-03-22T18:20:51.859Z,8.93
2019-03-22T18:23:20.197Z,9.30
2019-03-22T18:25:48.597Z,10.27
2019-03-22T18:28:17.065Z,13.13
2019-03-22T18:30:45.386Z,14.20
2019-03-22T18:33:13.754Z,12.17
2019-03-22T18:35:42.017Z,10.43
2019-03-22T18:41:14.862Z,11.73
2019-03-22T18:46:58.762Z,10.20
2019-03-22T18:52:44.177Z,10.70
2019-03-22T18:58:30.065Z,9.60
2019-03-22T19:04:14.684Z,11.73
2019-03-22T19:09:59.237Z,9.67
2019-03-22T19:12:27.728Z,11.10
2019-03-22T19:14:56.105Z,11.20
2019-03-22T19:17:25.526Z,10.10
2019-03-22T19:19:53.957Z,9.60
2019-03-22T19:22:22.385Z,8.53
2019-03-22T19:24:50.757Z,13.83
2019-03-22T19:27:19.246Z,14.23
2019-03-22T19:29:47.612Z,11.00
2019-03-22T19:32:15.910Z,12.80
2019-03-22T19:34:54.002Z,13.17
2019-03-22T19:37:14.255Z,15.33
2019-03-22T19:39:42.569Z,14.47
2019-03-22T19:42:10.771Z,14.67
2019-03-22T19:44:38.982Z,13.00
2019-03-22T19:47:07.368Z,16.10
2019-03-22T19:49:36.133Z,13.23
2019-03-22T19:52:04.567Z,13.13
2019-03-22T19:54:33.792Z,15.57
2019-03-22T19:57:02.590Z,20.63
2019-03-22T19:59:30.970Z,17.83
2019-03-22T20:01:59.390Z,16.20
2019-03-22T20:04:27.728Z,13.57
2019-03-22T20:06:55.972Z,15.87
2019-03-22T20:09:27.620Z,14.47
2019-03-22T20:11:57.084Z,19.80
2019-03-22T20:14:25.509Z,20.17
2019-03-22T20:16:53.832Z,17.77
2019-03-22T20:19:22.113Z,15.83
2019-03-22T20:21:51.237Z,17.33
2019-03-22T20:24:20.789Z,17.70
2019-03-22T20:26:49.367Z,19.97
2019-03-22T20:29:17.771Z,22.70
2019-03-22T20:31:46.075Z,22.23
2019-03-22T20:34:14.605Z,21.37
2019-03-22T20:36:43.765Z,27.70
2019-03-22T20:39:12.386Z,25.10
2019-03-22T20:41:40.685Z,15.40
2019-03-22T20:44:09.079Z,24.90
2019-03-22T20:46:37.253Z,20.63
2019-03-22T20:49:05.601Z,22.27
2019-03-22T20:51:33.932Z,20.13
2019-03-22T20:54:02.486Z,23.53
2019-03-22T20:56:30.832Z,21.37
2019-03-22T20:58:59.134Z,21.57
2019-03-22T21:01:27.592Z,18.90
2019-03-22T21:03:56.037Z,16.20
2019-03-22T21:06:27.065Z,15.67
2019-03-22T21:08:57.455Z,16.27
2019-03-22T21:11:26.875Z,14.80
2019-03-22T21:16:59.232Z,20.43
2019-03-22T21:19:27.509Z,22.57
2019-03-22T21:25:12.400Z,18.83
2019-03-22T21:30:57.131Z,19.07
2019-03-22T21:36:41.035Z,30.33
2019-03-22T21:39:09.237Z,31.80
2019-03-22T21:41:37.592Z,26.77
2019-03-22T21:47:09.899Z,16.77
2019-03-22T21:52:53.535Z,18.40
2019-03-22T21:55:21.841Z,24.83
2019-03-22T21:57:50.095Z,23.70
2019-03-22T22:00:18.485Z,24.57
2019-03-22T22:02:46.678Z,24.07
2019-03-22T22:05:20.950Z,26.40
2019-03-22T22:07:51.080Z,22.63
2019-03-22T22:10:20.714Z,23.80
2019-03-22T22:16:05.078Z,25.10
2019-03-22T22:21:49.019Z,25.63
2019-03-22T22:27:34.094Z,17.00
2019-03-22T22:30:02.476Z,18.23
2019-03-22T22:35:57.981Z,18.57
2019-03-22T22:38:18.031Z,19.33
2019-03-22T22:43:50.153Z,22.90
2019-03-22T22:46:18.517Z,23.97
2019-03-22T22:52:02.998Z,19.70
2019-03-22T22:58:00.095Z,20.27
2019-03-22T23:00:28.823Z,20.37
2019-03-22T23:06:14.180Z,21.43
2019-03-22T23:11:58.630Z,22.60
2019-03-22T23:17:44.728Z,21.73
2019-03-22T23:23:18.110Z,17.30
2019-03-22T23:29:03.148Z,17.33
2019-03-22T23:31:31.979Z,20.50
2019-03-22T23:34:00.409Z,21.90
2019-03-22T23:36:28.805Z,19.30
2019-03-22T23:42:13.076Z,19.20
2019-03-22T23:44:41.356Z,18.30
2019-03-22T23:50:27.384Z,16.50
2019-03-22T23:52:56.777Z,17.27
2019-03-22T23:58:40.568Z,16.87
